Terminal Aerodrome Forecast
Issued by NWS Chicago, IL

Home | Current Version | Previous Version | Graphics & Text | Print | Product List | Glossary On
Versions: 1 2 3 4 5 6 7 8 9 10 11 12 13 14 15 16 17 18 19 20 21 22 23 24 25 26
000
FTUS43 KLOT 230520
TAFRFD
TAF
KRFD 230520Z 2306/2406 18006KT P6SM FEW250
     FM231500 19011KT P6SM FEW045 SCT250
     FM231800 19012G18KT P6SM FEW050 BKN250
     FM240000 17008KT P6SM BKN250=

USA.gov is the U.S. government's official web portal to all federal, state and local government web resources and services.